sensor_id;sensor_type;location;lat;lon;timestamp;temperature;humidity
27413;DHT22;14871;52.702;5.230;2023-08-06T00:01:52;18.20;99.90
27413;DHT22;14871;52.702;5.230;2023-08-06T00:04:18;18.20;99.90
27413;DHT22;14871;52.702;5.230;2023-08-06T00:06:44;18.20;99.90
27413;DHT22;14871;52.702;5.230;2023-08-06T00:09:10;18.20;99.90
27413;DHT22;14871;52.702;5.230;2023-08-06T00:11:36;18.20;99.90
27413;DHT22;14871;52.702;5.230;2023-08-06T00:14:01;18.10;99.90
27413;DHT22;14871;52.702;5.230;2023-08-06T00:16:27;18.20;99.90
27413;DHT22;14871;52.702;5.230;2023-08-06T00:18:52;18.10;99.90
27413;DHT22;14871;52.702;5.230;2023-08-06T00:21:18;18.10;99.90
27413;DHT22;14871;52.702;5.230;2023-08-06T00:23:43;18.20;99.90
27413;DHT22;14871;52.702;5.230;2023-08-06T00:26:09;18.10;99.90
27413;DHT22;14871;52.702;5.230;2023-08-06T00:28:35;18.20;99.90
27413;DHT22;14871;52.702;5.230;2023-08-06T00:31:00;18.10;99.90
27413;DHT22;14871;52.702;5.230;2023-08-06T00:33:26;18.10;99.90
27413;DHT22;14871;52.702;5.230;2023-08-06T00:35:51;18.10;99.90
27413;DHT22;14871;52.702;5.230;2023-08-06T00:38:17;18.10;99.90
27413;DHT22;14871;52.702;5.230;2023-08-06T00:40:43;18.10;99.90
27413;DHT22;14871;52.702;5.230;2023-08-06T00:43:08;18.10;99.90
27413;DHT22;14871;52.702;5.230;2023-08-06T00:45:36;18.10;99.90
27413;DHT22;14871;52.702;5.230;2023-08-06T00:48:03;18.10;99.90
27413;DHT22;14871;52.702;5.230;2023-08-06T00:50:30;18.10;99.90
27413;DHT22;14871;52.702;5.230;2023-08-06T00:52:56;18.10;99.90
27413;DHT22;14871;52.702;5.230;2023-08-06T00:55:22;18.10;99.90
27413;DHT22;14871;52.702;5.230;2023-08-06T00:57:47;18.20;99.90
27413;DHT22;14871;52.702;5.230;2023-08-06T01:00:13;18.10;99.90
27413;DHT22;14871;52.702;5.230;2023-08-06T01:02:39;18.10;99.90
27413;DHT22;14871;52.702;5.230;2023-08-06T01:05:05;18.10;99.90
27413;DHT22;14871;52.702;5.230;2023-08-06T01:07:49;18.10;99.90
27413;DHT22;14871;52.702;5.230;2023-08-06T01:10:28;18.20;99.90
27413;DHT22;14871;52.702;5.230;2023-08-06T01:13:41;18.10;99.90
27413;DHT22;14871;52.702;5.230;2023-08-06T01:15:50;18.10;99.90
27413;DHT22;14871;52.702;5.230;2023-08-06T01:18:18;18.10;99.90
27413;DHT22;14871;52.702;5.230;2023-08-06T01:20:43;18.10;99.90
27413;DHT22;14871;52.702;5.230;2023-08-06T01:23:09;18.10;99.90
27413;DHT22;14871;52.702;5.230;2023-08-06T01:26:07;18.10;99.90
27413;DHT22;14871;52.702;5.230;2023-08-06T01:28:48;18.10;99.90
27413;DHT22;14871;52.702;5.230;2023-08-06T01:31:22;18.20;99.90
27413;DHT22;14871;52.702;5.230;2023-08-06T01:33:50;18.20;99.90
27413;DHT22;14871;52.702;5.230;2023-08-06T01:36:17;18.20;99.90
27413;DHT22;14871;52.702;5.230;2023-08-06T01:38:44;18.20;99.90
27413;DHT22;14871;52.702;5.230;2023-08-06T01:41:10;18.10;99.90
27413;DHT22;14871;52.702;5.230;2023-08-06T01:43:35;18.20;99.90
27413;DHT22;14871;52.702;5.230;2023-08-06T01:46:01;18.20;99.90
27413;DHT22;14871;52.702;5.230;2023-08-06T01:48:26;18.20;99.90
27413;DHT22;14871;52.702;5.230;2023-08-06T01:50:52;18.20;99.90
27413;DHT22;14871;52.702;5.230;2023-08-06T01:53:17;18.20;99.90
27413;DHT22;14871;52.702;5.230;2023-08-06T01:55:48;18.20;99.90
27413;DHT22;14871;52.702;5.230;2023-08-06T01:58:14;18.20;99.90
27413;DHT22;14871;52.702;5.230;2023-08-06T02:00:40;18.10;99.90
27413;DHT22;14871;52.702;5.230;2023-08-06T02:03:06;18.30;99.90
27413;DHT22;14871;52.702;5.230;2023-08-06T02:05:31;18.20;99.90
27413;DHT22;14871;52.702;5.230;2023-08-06T02:07:57;18.20;99.90
27413;DHT22;14871;52.702;5.230;2023-08-06T02:10:23;18.20;99.90
27413;DHT22;14871;52.702;5.230;2023-08-06T02:12:48;18.20;99.90
27413;DHT22;14871;52.702;5.230;2023-08-06T02:15:14;18.20;99.90
27413;DHT22;14871;52.702;5.230;2023-08-06T02:17:39;18.20;99.90
27413;DHT22;14871;52.702;5.230;2023-08-06T02:20:05;18.20;99.90
27413;DHT22;14871;52.702;5.230;2023-08-06T02:22:31;18.20;99.90
27413;DHT22;14871;52.702;5.230;2023-08-06T02:24:57;18.20;99.90
27413;DHT22;14871;52.702;5.230;2023-08-06T02:27:22;18.20;99.90
27413;DHT22;14871;52.702;5.230;2023-08-06T02:29:48;18.20;99.90
27413;DHT22;14871;52.702;5.230;2023-08-06T02:32:13;18.20;99.90
27413;DHT22;14871;52.702;5.230;2023-08-06T02:34:39;18.20;99.90
27413;DHT22;14871;52.702;5.230;2023-08-06T02:37:05;18.20;99.90
27413;DHT22;14871;52.702;5.230;2023-08-06T02:39:30;18.20;99.90
27413;DHT22;14871;52.702;5.230;2023-08-06T02:41:56;18.20;99.90
27413;DHT22;14871;52.702;5.230;2023-08-06T02:44:21;18.20;99.90
27413;DHT22;14871;52.702;5.230;2023-08-06T02:46:47;18.20;99.90
27413;DHT22;14871;52.702;5.230;2023-08-06T02:49:12;18.20;99.90
27413;DHT22;14871;52.702;5.230;2023-08-06T02:51:38;18.20;99.90
27413;DHT22;14871;52.702;5.230;2023-08-06T02:54:04;18.20;99.90
27413;DHT22;14871;52.702;5.230;2023-08-06T02:56:29;18.20;99.90
27413;DHT22;14871;52.702;5.230;2023-08-06T02:58:56;18.20;99.90
27413;DHT22;14871;52.702;5.230;2023-08-06T03:01:21;18.20;99.90
27413;DHT22;14871;52.702;5.230;2023-08-06T03:03:48;18.20;99.90
27413;DHT22;14871;52.702;5.230;2023-08-06T03:06:14;18.10;99.90
27413;DHT22;14871;52.702;5.230;2023-08-06T03:08:40;18.10;99.90
27413;DHT22;14871;52.702;5.230;2023-08-06T03:11:05;18.20;99.90
27413;DHT22;14871;52.702;5.230;2023-08-06T03:13:31;18.10;99.90
27413;DHT22;14871;52.702;5.230;2023-08-06T03:15:58;18.20;99.90
27413;DHT22;14871;52.702;5.230;2023-08-06T03:18:24;18.20;99.90
27413;DHT22;14871;52.702;5.230;2023-08-06T03:20:51;18.10;99.90
27413;DHT22;14871;52.702;5.230;2023-08-06T03:23:17;18.10;99.90
27413;DHT22;14871;52.702;5.230;2023-08-06T03:25:43;18.10;99.90
27413;DHT22;14871;52.702;5.230;2023-08-06T03:28:09;18.20;99.90
27413;DHT22;14871;52.702;5.230;2023-08-06T03:30:34;18.10;99.90
27413;DHT22;14871;52.702;5.230;2023-08-06T03:33:00;18.10;99.90
27413;DHT22;14871;52.702;5.230;2023-08-06T03:35:26;18.10;99.90
27413;DHT22;14871;52.702;5.230;2023-08-06T03:37:51;18.00;99.90
27413;DHT22;14871;52.702;5.230;2023-08-06T03:40:17;18.00;99.90
27413;DHT22;14871;52.702;5.230;2023-08-06T03:42:42;18.00;99.90
27413;DHT22;14871;52.702;5.230;2023-08-06T03:45:08;18.00;99.90
27413;DHT22;14871;52.702;5.230;2023-08-06T03:47:34;18.10;99.90
27413;DHT22;14871;52.702;5.230;2023-08-06T03:50:00;18.10;99.90
27413;DHT22;14871;52.702;5.230;2023-08-06T03:52:25;18.10;99.90
27413;DHT22;14871;52.702;5.230;2023-08-06T03:54:51;18.10;99.90
27413;DHT22;14871;52.702;5.230;2023-08-06T03:57:17;18.00;99.90
27413;DHT22;14871;52.702;5.230;2023-08-06T03:59:42;18.00;99.90
27413;DHT22;14871;52.702;5.230;2023-08-06T04:02:08;18.10;99.90
27413;DHT22;14871;52.702;5.230;2023-08-06T04:04:33;18.10;99.90
27413;DHT22;14871;52.702;5.230;2023-08-06T04:06:59;18.10;99.90
27413;DHT22;14871;52.702;5.230;2023-08-06T04:09:25;18.10;99.90
27413;DHT22;14871;52.702;5.230;2023-08-06T04:11:50;18.10;99.90
27413;DHT22;14871;52.702;5.230;2023-08-06T04:14:16;18.10;99.90
27413;DHT22;14871;52.702;5.230;2023-08-06T04:16:41;18.10;99.90
27413;DHT22;14871;52.702;5.230;2023-08-06T04:19:07;18.10;99.90
27413;DHT22;14871;52.702;5.230;2023-08-06T04:21:32;18.10;99.90
27413;DHT22;14871;52.702;5.230;2023-08-06T04:23:59;18.20;99.90
27413;DHT22;14871;52.702;5.230;2023-08-06T04:26:25;18.20;99.90
27413;DHT22;14871;52.702;5.230;2023-08-06T04:28:50;18.20;99.90
27413;DHT22;14871;52.702;5.230;2023-08-06T04:31:16;18.20;99.90
27413;DHT22;14871;52.702;5.230;2023-08-06T04:33:42;18.20;99.90
27413;DHT22;14871;52.702;5.230;2023-08-06T04:36:07;18.20;99.90
27413;DHT22;14871;52.702;5.230;2023-08-06T04:38:33;18.20;99.90
27413;DHT22;14871;52.702;5.230;2023-08-06T04:40:59;18.20;99.90
27413;DHT22;14871;52.702;5.230;2023-08-06T04:43:24;18.20;99.90
27413;DHT22;14871;52.702;5.230;2023-08-06T04:45:51;18.20;99.90
27413;DHT22;14871;52.702;5.230;2023-08-06T04:48:18;18.20;99.90
27413;DHT22;14871;52.702;5.230;2023-08-06T04:50:48;18.20;99.90
27413;DHT22;14871;52.702;5.230;2023-08-06T04:53:14;18.20;99.90
27413;DHT22;14871;52.702;5.230;2023-08-06T04:55:40;18.20;99.90
27413;DHT22;14871;52.702;5.230;2023-08-06T04:58:06;18.20;99.90
27413;DHT22;14871;52.702;5.230;2023-08-06T05:00:33;18.20;99.90
27413;DHT22;14871;52.702;5.230;2023-08-06T05:03:02;18.30;99.90
27413;DHT22;14871;52.702;5.230;2023-08-06T05:05:28;18.30;99.90
27413;DHT22;14871;52.702;5.230;2023-08-06T05:07:55;18.30;99.90
27413;DHT22;14871;52.702;5.230;2023-08-06T05:10:21;18.30;99.90
27413;DHT22;14871;52.702;5.230;2023-08-06T05:12:47;18.30;99.90
27413;DHT22;14871;52.702;5.230;2023-08-06T05:15:12;18.40;99.90
27413;DHT22;14871;52.702;5.230;2023-08-06T05:17:38;18.40;99.90
27413;DHT22;14871;52.702;5.230;2023-08-06T05:20:04;18.40;99.90
27413;DHT22;14871;52.702;5.230;2023-08-06T05:22:30;18.40;99.90
27413;DHT22;14871;52.702;5.230;2023-08-06T05:24:55;18.40;99.90
27413;DHT22;14871;52.702;5.230;2023-08-06T05:27:21;18.40;99.90
27413;DHT22;14871;52.702;5.230;2023-08-06T05:29:48;18.40;99.90
27413;DHT22;14871;52.702;5.230;2023-08-06T05:32:13;18.40;99.90
27413;DHT22;14871;52.702;5.230;2023-08-06T05:34:39;18.40;99.90
27413;DHT22;14871;52.702;5.230;2023-08-06T05:37:05;18.40;99.90
27413;DHT22;14871;52.702;5.230;2023-08-06T05:39:30;18.50;99.90
27413;DHT22;14871;52.702;5.230;2023-08-06T05:41:57;18.50;99.90
27413;DHT22;14871;52.702;5.230;2023-08-06T05:44:25;18.50;99.90
27413;DHT22;14871;52.702;5.230;2023-08-06T05:46:51;18.50;99.90
27413;DHT22;14871;52.702;5.230;2023-08-06T05:49:18;18.50;99.90
27413;DHT22;14871;52.702;5.230;2023-08-06T05:51:44;18.40;99.90
27413;DHT22;14871;52.702;5.230;2023-08-06T05:54:09;18.50;99.90
27413;DHT22;14871;52.702;5.230;2023-08-06T05:56:35;18.50;99.90
27413;DHT22;14871;52.702;5.230;2023-08-06T05:59:01;18.50;99.90
27413;DHT22;14871;52.702;5.230;2023-08-06T06:01:26;18.50;99.90
27413;DHT22;14871;52.702;5.230;2023-08-06T06:03:52;18.50;99.90
27413;DHT22;14871;52.702;5.230;2023-08-06T06:06:17;18.60;99.90
27413;DHT22;14871;52.702;5.230;2023-08-06T06:08:44;18.60;99.90
27413;DHT22;14871;52.702;5.230;2023-08-06T06:11:10;18.60;99.90
27413;DHT22;14871;52.702;5.230;2023-08-06T06:13:35;18.60;99.90
27413;DHT22;14871;52.702;5.230;2023-08-06T06:16:01;18.60;99.90
27413;DHT22;14871;52.702;5.230;2023-08-06T06:18:27;18.60;99.90
27413;DHT22;14871;52.702;5.230;2023-08-06T06:20:52;18.60;99.90
27413;DHT22;14871;52.702;5.230;2023-08-06T06:23:18;18.60;99.90
27413;DHT22;14871;52.702;5.230;2023-08-06T06:25:47;18.60;99.90
27413;DHT22;14871;52.702;5.230;2023-08-06T06:28:13;18.70;99.90
27413;DHT22;14871;52.702;5.230;2023-08-06T06:30:41;18.70;99.90
27413;DHT22;14871;52.702;5.230;2023-08-06T06:33:07;18.70;99.90
27413;DHT22;14871;52.702;5.230;2023-08-06T06:35:34;18.70;99.90
27413;DHT22;14871;52.702;5.230;2023-08-06T06:37:59;18.70;99.90
27413;DHT22;14871;52.702;5.230;2023-08-06T06:40:25;18.70;99.90
27413;DHT22;14871;52.702;5.230;2023-08-06T06:42:51;18.60;99.90
27413;DHT22;14871;52.702;5.230;2023-08-06T06:45:17;18.70;99.90
27413;DHT22;14871;52.702;5.230;2023-08-06T06:47:42;18.70;99.90
27413;DHT22;14871;52.702;5.230;2023-08-06T06:50:08;18.70;99.90
27413;DHT22;14871;52.702;5.230;2023-08-06T06:52:35;18.70;99.90
27413;DHT22;14871;52.702;5.230;2023-08-06T06:55:00;18.80;99.90
27413;DHT22;14871;52.702;5.230;2023-08-06T06:57:26;18.80;99.90
27413;DHT22;14871;52.702;5.230;2023-08-06T06:59:51;18.80;99.90
27413;DHT22;14871;52.702;5.230;2023-08-06T07:02:17;18.90;99.90
27413;DHT22;14871;52.702;5.230;2023-08-06T07:04:42;18.90;99.90
27413;DHT22;14871;52.702;5.230;2023-08-06T07:07:08;18.90;99.90
27413;DHT22;14871;52.702;5.230;2023-08-06T07:09:34;18.80;99.90
27413;DHT22;14871;52.702;5.230;2023-08-06T07:11:59;18.90;99.90
27413;DHT22;14871;52.702;5.230;2023-08-06T07:14:25;18.90;99.90
27413;DHT22;14871;52.702;5.230;2023-08-06T07:16:51;18.90;99.90
27413;DHT22;14871;52.702;5.230;2023-08-06T07:19:17;18.90;99.90
27413;DHT22;14871;52.702;5.230;2023-08-06T07:21:43;18.90;99.90
27413;DHT22;14871;52.702;5.230;2023-08-06T07:24:08;18.90;99.90
27413;DHT22;14871;52.702;5.230;2023-08-06T07:26:34;18.90;99.90
27413;DHT22;14871;52.702;5.230;2023-08-06T07:29:00;18.90;99.90
27413;DHT22;14871;52.702;5.230;2023-08-06T07:31:26;18.90;99.90
27413;DHT22;14871;52.702;5.230;2023-08-06T07:33:52;18.90;99.90
27413;DHT22;14871;52.702;5.230;2023-08-06T07:36:18;18.90;99.90
27413;DHT22;14871;52.702;5.230;2023-08-06T07:38:44;18.90;99.90
27413;DHT22;14871;52.702;5.230;2023-08-06T07:41:09;18.90;99.90
27413;DHT22;14871;52.702;5.230;2023-08-06T07:43:35;18.80;99.90
27413;DHT22;14871;52.702;5.230;2023-08-06T07:46:01;18.80;99.90
27413;DHT22;14871;52.702;5.230;2023-08-06T07:48:27;18.80;99.90
27413;DHT22;14871;52.702;5.230;2023-08-06T07:50:54;18.90;99.90
27413;DHT22;14871;52.702;5.230;2023-08-06T07:53:23;18.90;99.90
27413;DHT22;14871;52.702;5.230;2023-08-06T07:55:53;18.80;99.90
27413;DHT22;14871;52.702;5.230;2023-08-06T07:58:19;18.80;99.90
27413;DHT22;14871;52.702;5.230;2023-08-06T08:00:45;18.80;99.90
27413;DHT22;14871;52.702;5.230;2023-08-06T08:03:15;18.70;99.90
27413;DHT22;14871;52.702;5.230;2023-08-06T08:05:44;18.70;99.90
27413;DHT22;14871;52.702;5.230;2023-08-06T08:08:10;18.80;99.90
27413;DHT22;14871;52.702;5.230;2023-08-06T08:10:36;18.80;99.90
27413;DHT22;14871;52.702;5.230;2023-08-06T08:13:03;18.70;99.90
27413;DHT22;14871;52.702;5.230;2023-08-06T08:15:30;18.80;99.90
27413;DHT22;14871;52.702;5.230;2023-08-06T08:17:56;18.70;99.90
27413;DHT22;14871;52.702;5.230;2023-08-06T08:20:22;18.80;99.90
27413;DHT22;14871;52.702;5.230;2023-08-06T08:22:47;18.80;99.90
27413;DHT22;14871;52.702;5.230;2023-08-06T08:25:15;18.80;99.90
27413;DHT22;14871;52.702;5.230;2023-08-06T08:27:40;18.80;99.90
27413;DHT22;14871;52.702;5.230;2023-08-06T08:30:06;18.70;99.90
27413;DHT22;14871;52.702;5.230;2023-08-06T08:32:32;18.80;99.90
27413;DHT22;14871;52.702;5.230;2023-08-06T08:34:57;18.60;99.90
27413;DHT22;14871;52.702;5.230;2023-08-06T08:37:23;18.60;99.90
27413;DHT22;14871;52.702;5.230;2023-08-06T08:39:49;18.60;99.90
27413;DHT22;14871;52.702;5.230;2023-08-06T08:42:16;18.60;99.90
27413;DHT22;14871;52.702;5.230;2023-08-06T08:44:42;18.60;99.90
27413;DHT22;14871;52.702;5.230;2023-08-06T08:47:08;18.60;99.90
27413;DHT22;14871;52.702;5.230;2023-08-06T08:49:36;18.50;99.90
27413;DHT22;14871;52.702;5.230;2023-08-06T08:52:02;18.50;99.90
27413;DHT22;14871;52.702;5.230;2023-08-06T08:54:31;18.50;99.90
27413;DHT22;14871;52.702;5.230;2023-08-06T08:56:57;18.50;99.90
27413;DHT22;14871;52.702;5.230;2023-08-06T08:59:23;18.50;99.90
27413;DHT22;14871;52.702;5.230;2023-08-06T09:01:49;18.40;99.90
27413;DHT22;14871;52.702;5.230;2023-08-06T09:04:18;18.50;99.90
27413;DHT22;14871;52.702;5.230;2023-08-06T09:06:48;18.50;99.90
27413;DHT22;14871;52.702;5.230;2023-08-06T09:09:33;18.60;99.90
27413;DHT22;14871;52.702;5.230;2023-08-06T09:12:03;18.60;99.90
27413;DHT22;14871;52.702;5.230;2023-08-06T09:14:30;18.60;99.90
27413;DHT22;14871;52.702;5.230;2023-08-06T09:16:56;18.60;99.90
27413;DHT22;14871;52.702;5.230;2023-08-06T09:19:23;18.70;99.90
27413;DHT22;14871;52.702;5.230;2023-08-06T09:21:51;18.70;99.90
27413;DHT22;14871;52.702;5.230;2023-08-06T09:24:17;18.80;99.90
27413;DHT22;14871;52.702;5.230;2023-08-06T09:26:44;18.80;99.90
27413;DHT22;14871;52.702;5.230;2023-08-06T09:29:11;18.80;99.90
27413;DHT22;14871;52.702;5.230;2023-08-06T09:31:44;18.80;99.90
27413;DHT22;14871;52.702;5.230;2023-08-06T09:34:23;18.80;99.90
27413;DHT22;14871;52.702;5.230;2023-08-06T09:36:51;18.90;99.90
27413;DHT22;14871;52.702;5.230;2023-08-06T09:39:20;18.80;99.90
27413;DHT22;14871;52.702;5.230;2023-08-06T09:41:47;18.80;99.90
27413;DHT22;14871;52.702;5.230;2023-08-06T09:44:16;18.80;99.90
27413;DHT22;14871;52.702;5.230;2023-08-06T09:46:46;18.90;99.90
27413;DHT22;14871;52.702;5.230;2023-08-06T09:49:12;18.90;99.90
27413;DHT22;14871;52.702;5.230;2023-08-06T09:51:38;19.00;99.90
27413;DHT22;14871;52.702;5.230;2023-08-06T09:54:05;19.10;99.90
27413;DHT22;14871;52.702;5.230;2023-08-06T09:56:36;19.10;99.90
27413;DHT22;14871;52.702;5.230;2023-08-06T09:59:04;19.20;99.90
27413;DHT22;14871;52.702;5.230;2023-08-06T10:01:33;19.20;99.90
27413;DHT22;14871;52.702;5.230;2023-08-06T10:04:00;19.20;99.90
27413;DHT22;14871;52.702;5.230;2023-08-06T10:06:26;19.10;99.90
27413;DHT22;14871;52.702;5.230;2023-08-06T10:08:53;19.20;99.90
27413;DHT22;14871;52.702;5.230;2023-08-06T10:11:22;19.20;99.90
27413;DHT22;14871;52.702;5.230;2023-08-06T10:13:51;19.30;99.90
27413;DHT22;14871;52.702;5.230;2023-08-06T10:16:18;19.40;99.90
27413;DHT22;14871;52.702;5.230;2023-08-06T10:18:45;19.40;99.90
27413;DHT22;14871;52.702;5.230;2023-08-06T10:21:12;19.40;99.90
27413;DHT22;14871;52.702;5.230;2023-08-06T10:23:40;19.40;99.90
27413;DHT22;14871;52.702;5.230;2023-08-06T10:26:06;19.50;99.90
27413;DHT22;14871;52.702;5.230;2023-08-06T10:28:37;19.50;99.90
27413;DHT22;14871;52.702;5.230;2023-08-06T10:31:04;19.50;99.90
27413;DHT22;14871;52.702;5.230;2023-08-06T10:33:42;19.50;99.90
27413;DHT22;14871;52.702;5.230;2023-08-06T10:36:09;19.50;99.90
27413;DHT22;14871;52.702;5.230;2023-08-06T10:38:36;19.50;99.90
27413;DHT22;14871;52.702;5.230;2023-08-06T10:41:15;19.50;99.90
27413;DHT22;14871;52.702;5.230;2023-08-06T10:43:41;19.50;99.90
27413;DHT22;14871;52.702;5.230;2023-08-06T10:46:26;19.40;99.90
27413;DHT22;14871;52.702;5.230;2023-08-06T10:48:52;19.40;99.90
27413;DHT22;14871;52.702;5.230;2023-08-06T10:51:18;19.40;99.90
27413;DHT22;14871;52.702;5.230;2023-08-06T10:53:45;19.50;99.90
27413;DHT22;14871;52.702;5.230;2023-08-06T10:56:15;19.50;99.90
27413;DHT22;14871;52.702;5.230;2023-08-06T10:58:42;19.60;99.90
27413;DHT22;14871;52.702;5.230;2023-08-06T11:01:07;19.50;99.90
27413;DHT22;14871;52.702;5.230;2023-08-06T11:03:33;19.60;99.90
27413;DHT22;14871;52.702;5.230;2023-08-06T11:06:00;19.60;99.90
27413;DHT22;14871;52.702;5.230;2023-08-06T11:08:26;19.50;99.90
27413;DHT22;14871;52.702;5.230;2023-08-06T11:10:52;19.30;99.90
27413;DHT22;14871;52.702;5.230;2023-08-06T11:13:18;19.40;99.90
27413;DHT22;14871;52.702;5.230;2023-08-06T11:15:45;19.50;99.90
27413;DHT22;14871;52.702;5.230;2023-08-06T11:18:11;19.50;99.90
27413;DHT22;14871;52.702;5.230;2023-08-06T11:20:37;19.60;99.90
27413;DHT22;14871;52.702;5.230;2023-08-06T11:23:03;19.70;99.90
27413;DHT22;14871;52.702;5.230;2023-08-06T11:25:29;19.70;99.90
27413;DHT22;14871;52.702;5.230;2023-08-06T11:27:55;19.80;99.90
27413;DHT22;14871;52.702;5.230;2023-08-06T11:30:21;19.90;99.90
27413;DHT22;14871;52.702;5.230;2023-08-06T11:32:49;19.90;99.90
27413;DHT22;14871;52.702;5.230;2023-08-06T11:35:15;19.90;99.90
27413;DHT22;14871;52.702;5.230;2023-08-06T11:37:45;20.00;99.90
27413;DHT22;14871;52.702;5.230;2023-08-06T11:40:15;20.00;99.90
27413;DHT22;14871;52.702;5.230;2023-08-06T11:42:41;20.00;99.90
27413;DHT22;14871;52.702;5.230;2023-08-06T11:45:08;20.10;99.90
27413;DHT22;14871;52.702;5.230;2023-08-06T11:47:38;20.10;99.90
27413;DHT22;14871;52.702;5.230;2023-08-06T11:50:07;20.00;99.90
27413;DHT22;14871;52.702;5.230;2023-08-06T11:52:33;20.00;99.90
27413;DHT22;14871;52.702;5.230;2023-08-06T11:55:06;20.00;99.90
27413;DHT22;14871;52.702;5.230;2023-08-06T11:57:34;20.10;99.90
27413;DHT22;14871;52.702;5.230;2023-08-06T12:00:09;20.00;99.90
27413;DHT22;14871;52.702;5.230;2023-08-06T12:02:35;20.10;99.90
27413;DHT22;14871;52.702;5.230;2023-08-06T12:05:14;20.10;99.90
27413;DHT22;14871;52.702;5.230;2023-08-06T12:07:45;20.10;99.90
27413;DHT22;14871;52.702;5.230;2023-08-06T12:10:12;20.10;99.90
27413;DHT22;14871;52.702;5.230;2023-08-06T12:12:38;20.00;99.90
27413;DHT22;14871;52.702;5.230;2023-08-06T12:15:05;20.00;99.90
27413;DHT22;14871;52.702;5.230;2023-08-06T12:17:31;19.90;99.90
27413;DHT22;14871;52.702;5.230;2023-08-06T12:19:57;20.00;99.90
27413;DHT22;14871;52.702;5.230;2023-08-06T12:22:23;19.90;99.90
27413;DHT22;14871;52.702;5.230;2023-08-06T12:24:48;20.00;99.90
27413;DHT22;14871;52.702;5.230;2023-08-06T12:27:14;20.10;99.90
27413;DHT22;14871;52.702;5.230;2023-08-06T12:29:48;20.20;99.90
27413;DHT22;14871;52.702;5.230;2023-08-06T12:32:14;20.30;99.90
27413;DHT22;14871;52.702;5.230;2023-08-06T12:34:43;20.30;99.90
27413;DHT22;14871;52.702;5.230;2023-08-06T12:37:09;20.30;99.90
27413;DHT22;14871;52.702;5.230;2023-08-06T12:39:35;20.40;99.90
27413;DHT22;14871;52.702;5.230;2023-08-06T12:42:04;20.40;99.90
27413;DHT22;14871;52.702;5.230;2023-08-06T12:44:29;20.50;99.90
27413;DHT22;14871;52.702;5.230;2023-08-06T12:46:56;20.60;99.90
27413;DHT22;14871;52.702;5.230;2023-08-06T12:49:22;20.70;99.90
27413;DHT22;14871;52.702;5.230;2023-08-06T12:51:48;20.70;99.90
27413;DHT22;14871;52.702;5.230;2023-08-06T12:54:16;20.80;99.90
27413;DHT22;14871;52.702;5.230;2023-08-06T12:56:41;20.80;99.90
27413;DHT22;14871;52.702;5.230;2023-08-06T12:59:07;20.80;99.90
27413;DHT22;14871;52.702;5.230;2023-08-06T13:01:32;20.80;99.90
27413;DHT22;14871;52.702;5.230;2023-08-06T13:03:59;20.90;99.90
27413;DHT22;14871;52.702;5.230;2023-08-06T13:06:25;20.90;99.90
27413;DHT22;14871;52.702;5.230;2023-08-06T13:08:51;21.00;99.90
27413;DHT22;14871;52.702;5.230;2023-08-06T13:11:16;21.00;99.90
27413;DHT22;14871;52.702;5.230;2023-08-06T13:13:42;21.00;99.90
27413;DHT22;14871;52.702;5.230;2023-08-06T13:16:08;21.00;99.90
27413;DHT22;14871;52.702;5.230;2023-08-06T13:18:33;20.90;99.90
27413;DHT22;14871;52.702;5.230;2023-08-06T13:20:59;20.90;99.90
27413;DHT22;14871;52.702;5.230;2023-08-06T13:23:25;21.00;99.90
27413;DHT22;14871;52.702;5.230;2023-08-06T13:25:50;21.00;99.90
27413;DHT22;14871;52.702;5.230;2023-08-06T13:28:16;21.00;99.90
27413;DHT22;14871;52.702;5.230;2023-08-06T13:30:41;21.00;99.90
27413;DHT22;14871;52.702;5.230;2023-08-06T13:33:11;21.00;99.90
27413;DHT22;14871;52.702;5.230;2023-08-06T13:35:37;21.00;99.90
27413;DHT22;14871;52.702;5.230;2023-08-06T13:38:02;21.00;99.90
27413;DHT22;14871;52.702;5.230;2023-08-06T13:40:29;21.00;99.90
27413;DHT22;14871;52.702;5.230;2023-08-06T13:42:55;21.00;99.90
27413;DHT22;14871;52.702;5.230;2023-08-06T13:45:21;21.00;99.90
27413;DHT22;14871;52.702;5.230;2023-08-06T13:47:46;21.00;99.90
27413;DHT22;14871;52.702;5.230;2023-08-06T13:50:13;20.90;99.90
27413;DHT22;14871;52.702;5.230;2023-08-06T13:52:39;20.90;99.90
27413;DHT22;14871;52.702;5.230;2023-08-06T13:55:05;20.90;99.90
27413;DHT22;14871;52.702;5.230;2023-08-06T13:57:31;20.80;99.90
27413;DHT22;14871;52.702;5.230;2023-08-06T13:59:56;20.80;99.90
27413;DHT22;14871;52.702;5.230;2023-08-06T14:02:22;20.70;99.90
27413;DHT22;14871;52.702;5.230;2023-08-06T14:04:48;20.70;99.90
27413;DHT22;14871;52.702;5.230;2023-08-06T14:07:14;20.70;99.90
27413;DHT22;14871;52.702;5.230;2023-08-06T14:09:39;20.60;99.90
27413;DHT22;14871;52.702;5.230;2023-08-06T14:12:06;20.80;99.90
27413;DHT22;14871;52.702;5.230;2023-08-06T14:14:31;20.80;99.90
27413;DHT22;14871;52.702;5.230;2023-08-06T14:16:57;20.80;99.90
27413;DHT22;14871;52.702;5.230;2023-08-06T14:19:23;20.90;99.90
27413;DHT22;14871;52.702;5.230;2023-08-06T14:21:49;20.90;99.90
27413;DHT22;14871;52.702;5.230;2023-08-06T14:24:15;20.90;99.90
27413;DHT22;14871;52.702;5.230;2023-08-06T14:26:40;20.70;99.90
27413;DHT22;14871;52.702;5.230;2023-08-06T14:29:06;20.70;99.90
27413;DHT22;14871;52.702;5.230;2023-08-06T14:31:32;20.60;99.90
27413;DHT22;14871;52.702;5.230;2023-08-06T14:33:57;20.40;99.90
27413;DHT22;14871;52.702;5.230;2023-08-06T14:36:23;20.20;99.90
27413;DHT22;14871;52.702;5.230;2023-08-06T14:38:49;20.10;99.90
27413;DHT22;14871;52.702;5.230;2023-08-06T14:41:14;20.20;99.90
27413;DHT22;14871;52.702;5.230;2023-08-06T14:43:40;20.00;99.90
27413;DHT22;14871;52.702;5.230;2023-08-06T14:46:06;20.00;99.90
27413;DHT22;14871;52.702;5.230;2023-08-06T14:48:31;19.80;99.90
27413;DHT22;14871;52.702;5.230;2023-08-06T14:50:57;19.70;99.90
27413;DHT22;14871;52.702;5.230;2023-08-06T14:53:23;19.70;99.90
27413;DHT22;14871;52.702;5.230;2023-08-06T14:55:48;19.70;99.90
27413;DHT22;14871;52.702;5.230;2023-08-06T14:58:20;19.70;99.90
27413;DHT22;14871;52.702;5.230;2023-08-06T15:00:46;19.60;99.90
27413;DHT22;14871;52.702;5.230;2023-08-06T15:03:12;19.50;99.90
27413;DHT22;14871;52.702;5.230;2023-08-06T15:05:37;19.60;99.90
27413;DHT22;14871;52.702;5.230;2023-08-06T15:08:03;19.70;99.90
27413;DHT22;14871;52.702;5.230;2023-08-06T15:10:29;19.70;99.90
27413;DHT22;14871;52.702;5.230;2023-08-06T15:12:54;19.60;99.90
27413;DHT22;14871;52.702;5.230;2023-08-06T15:15:20;19.60;99.90
27413;DHT22;14871;52.702;5.230;2023-08-06T15:17:47;19.70;99.90
27413;DHT22;14871;52.702;5.230;2023-08-06T15:20:13;19.70;99.90
27413;DHT22;14871;52.702;5.230;2023-08-06T15:22:39;19.70;99.90
27413;DHT22;14871;52.702;5.230;2023-08-06T15:25:05;19.70;99.90
27413;DHT22;14871;52.702;5.230;2023-08-06T15:27:30;19.80;99.90